Accueil
METAR-TAF:

METAR-TAF

Aéroports :

Aéroport d'Helsinki-Vantaa

Helsinki, Finlande

latitude: 60-19N, longitude: 024-58E, altitude: 51 m

Observation

Le bulletin a été fait il y a 23 minutes, à 07:50 UTC
Vent 7 kt de nord/nord-ouest
Température -2°C
Humidité 93%
Pression 1033 hPa
Visibilité 10 km ou plus
pas de nuages en-dessous de 1500 mètres et pas de cumulonimbus.

METAR: EFHK 210750Z 33007KT CAVOK M02/M03 Q1033 NOSIG

Heure: 10:13 (08:13 UTC)

Prévision

Le bulletin a été fait il y a 2 heures et 43 minutes, à 05:30 UTC
Prévision valable du 21 à 06 UTC au 22 à 06 UTC
Vent 4 kt de nord/nord-ouest
Visibilité 10 km ou plus
Nuages épars à une hauteur de 3000 ft

TAF: EFHK 210530Z 2106/2206 33004KT 9999 SCT030

Observations et prévisions météorologiques de plus de 4000 aéroports (messages METAR et TAF).

Les stations disponibles sont représentées par des disques jaunes et rouges sur la carte.

Passer la souris dessus pour voir le nom de la station.

Cliquer dessus pour voir les observations et prévisions météorologiques.

Pour changer de carte: cliquez sur les boutons verts avec une croix noire pour zoomer, sur le bouton vert avec un tiret pour effectuer un zoom arrière, ou sur les flèches vertes pour les cartes adjacentes.


METAR-TAF: